Latest Weather Observations for Dalwallinu

IDW60801

Issued at 9:23 am WST Tuesday 16 August 2022 (issued every 10 minutes, with the page automatically refreshed every 10 minutes)

About weather observations | Map of weather stations | Latest weather observations for WA | Other Formats
Station Details ID: 008297 Name: DALWALLINU Lat: -30.28 Lon: 116.67 Height: 324.5 m
Data from the previous 72 hours. | See also: Recent months at Dalwallinu
Date/Time
WST
Temp
°C
App
Temp
°C
Dew
Point
°C
Rel
Hum
%
Delta-T
°C
Wind Press
QNH
hPa
Press
MSL
hPa
Rain since
9am
mm
Dir  Spd
km/h
Gust
km/h
Spd
kts
Gust
kts
16/09:00am 15.3 11.9 13.7 90 0.9 NW 24 37 13 20 1008.7 1008.5 27.0
16/08:30am 15.4 12.5 14.1 92 0.7 NW 22 32 12 17 1008.5 1008.3 26.8
16/08:00am 15.6 12.8 14.3 92 0.8 NW 22 32 12 17 1008.5 1008.3 26.6
16/07:30am 15.4 12.9 14.1 92 0.7 NW 20 30 11 16 1007.8 1007.7 26.4
16/07:00am 15.5 13.2 14.2 92 0.8 NW 19 26 10 14 1007.3 1007.2 26.2
16/06:30am 15.6 12.7 14.0 90 0.9 NW 22 32 12 17 1007.1 1007.0 25.8
16/06:00am 16.2 12.9 13.9 86 1.3 NW 24 35 13 19 1006.6 1006.4 25.8
16/05:30am 16.7 14.9 15.6 93 0.7 NW 19 32 10 17 1006.5 1006.3 25.4
16/05:00am 16.8 15.1 15.8 94 0.6 NW 19 28 10 15 1006.4 1006.2 25.0
16/04:30am 16.8 15.5 15.8 94 0.6 NW 17 28 9 15 1006.2 1006.0 24.6
16/04:00am 16.7 14.7 15.6 93 0.7 WNW 20 33 11 18 1006.0 1005.8 24.0
16/03:34am 17.6 14.5 16.5 93 0.7 WNW 28 48 15 26 1006.0 1005.8 22.4
16/03:30am 17.7 15.4 16.6 93 0.7 WNW 24 48 13 26 1006.0 1005.8 22.2
16/03:29am 17.6 15.7 16.6 94 0.6 WNW 22 48 12 26 1005.9 1005.7 22.2
16/03:00am 17.8 16.5 16.8 94 0.6 NW 19 24 10 13 1005.6 1005.4 20.2
16/02:30am 17.8 14.4 16.8 94 0.6 NNW 30 43 16 23 1005.6 1005.4 17.2
16/02:00am 18.1 15.2 17.0 93 0.7 NNW 28 41 15 22 1005.9 1005.7 14.4
16/01:30am 18.6 15.0 17.1 91 0.9 NNW 32 43 17 23 1006.0 1005.8 12.6
16/01:10am 18.4 15.2 17.2 93 0.7 N 30 48 16 26 1006.0 1005.8 12.6
16/01:00am 18.3 15.4 17.1 93 0.7 NNW 28 43 15 23 1005.9 1005.7 12.2
16/12:30am 18.1 14.6 16.6 91 0.9 NNW 30 48 16 26 1006.4 1006.2 11.6
16/12:01am 17.9 13.7 16.2 90 1.0 N 33 52 18 28 1006.6 1006.4 11.2
16/12:00am 17.9 13.3 16.2 90 1.0 N 35 52 19 28 1006.6 1006.4 11.2
 
Date/Time
WST
Temp
°C
App
Temp
°C
Dew
Point
°C
Rel
Hum
%
Delta-T
°C
Wind Press
QNH
hPa
Press
MSL
hPa
Rain since
9am
mm
Dir  Spd
km/h
Gust
km/h
Spd
kts
Gust
kts
15/11:30pm 17.8 12.8 16.1 90 1.0 N 37 56 20 30 1006.8 1006.7 11.2
15/11:18pm 17.4 13.8 16.3 93 0.7 N 30 48 16 26 1007.0 1006.9 11.2
15/11:00pm 17.3 14.8 16.2 93 0.7 N 24 33 13 18 1007.8 1007.7 9.2
15/10:30pm 17.4 14.4 15.9 91 0.9 NNW 26 35 14 19 1008.2 1008.1 6.6
15/10:00pm 17.5 15.7 16.0 91 0.9 NNW 20 32 11 17 1008.8 1008.6 4.8
15/09:30pm 17.5 15.9 16.0 91 0.9 NNW 19 28 10 15 1009.4 1009.3 4.4
15/09:00pm 17.4 16.1 15.7 90 1.0 NNW 17 24 9 13 1009.7 1009.6 4.0
15/08:30pm 17.5 15.7 15.5 88 1.2 N 19 28 10 15 1009.7 1009.6 3.2
15/08:00pm 17.0 15.4 15.0 88 1.2 N 17 22 9 12 1009.3 1009.1 2.6
15/07:30pm 16.5 15.6 14.9 90 0.9 NNE 13 15 7 8 1008.7 1008.5 2.4
15/07:00pm 16.3 15.7 14.7 90 0.9 N 11 15 6 8 1009.2 1009.0 1.4
15/06:30pm 16.4 16.2 14.6 89 1.0 ENE 9 11 5 6 1008.4 1008.2 0.2
15/06:00pm 16.8 15.8 14.6 87 1.3 NE 13 15 7 8 1008.6 1008.4 0.2
15/05:30pm 16.8 16.6 14.6 87 1.3 NE 9 13 5 7 1009.1 1008.9 0.0
15/05:00pm 17.5 17.7 14.6 83 1.7 NNE 7 11 4 6 1009.3 1009.1 0.0
15/04:30pm 17.9 17.7 14.8 82 1.8 NNE 9 11 5 6 1009.5 1009.4 0.0
15/04:00pm 18.1 17.0 14.2 78 2.3 NNE 13 20 7 11 1009.9 1009.8 0.0
15/03:30pm 18.3 17.0 13.6 74 2.7 N 13 17 7 9 1010.4 1010.3 0.0
15/03:00pm 18.6 17.4 13.9 74 2.7 N 13 22 7 12 1010.7 1010.6 0.0
15/02:30pm 18.4 15.3 13.5 73 2.8 N 22 32 12 17 1011.1 1011.0 0.0
15/02:00pm 19.0 15.4 13.2 69 3.3 N 24 32 13 17 1011.3 1011.2 0.0
15/01:30pm 19.8 16.0 13.5 67 3.7 N 26 39 14 21 1011.8 1011.6 0.0
15/01:00pm 19.4 15.7 12.7 65 3.8 N 24 32 13 17 1012.5 1012.4 0.0
15/12:30pm 20.5 16.8 12.7 61 4.5 N 24 35 13 19 1013.0 1012.9 0.0
15/12:00pm 19.4 16.6 13.1 67 3.6 N 20 26 11 14 1013.7 1013.6 0.0
15/11:30am 18.8 16.2 13.2 70 3.2 NNE 19 26 10 14 1013.8 1013.7 0.0
15/11:00am 17.8 14.9 12.3 70 3.1 NNE 19 26 10 14 1014.4 1014.3 0.0
15/10:30am 16.6 13.4 11.1 70 3.0 NNE 19 24 10 13 1014.6 1014.6 0.0
15/10:00am 16.1 12.5 10.6 70 3.0 N 20 28 11 15 1015.2 1015.1 0.0
15/09:30am 14.6 11.4 10.0 74 2.4 NNE 17 24 9 13 1015.6 1015.5 0.0
15/09:00am 12.5 10.3 9.3 81 1.6 NE 11 15 6 8 1015.7 1015.6 0.0
15/08:30am 10.1 7.9 7.9 86 1.1 NNE 9 11 5 6 1016.0 1015.9 0.0
15/08:00am 8.1 6.1 6.1 87 0.9 N 6 7 3 4 1016.0 1015.9 0.0
15/07:30am 6.7 4.5 5.2 90 0.7 NNE 6 7 3 4 1016.2 1016.1 0.0
15/07:00am 5.8 3.4 4.3 90 0.7 ENE 6 7 3 4 1016.1 1016.0 0.0
15/06:30am 5.9 3.5 4.4 90 0.7 ENE 6 7 3 4 1015.8 1015.7 0.0
15/06:00am 6.2 3.9 4.7 90 0.7 ENE 6 9 3 5 1015.9 1015.8 0.0
15/05:30am 6.1 3.8 4.6 90 0.7 NE 6 7 3 4 1015.8 1015.7 0.0
15/05:00am 6.1 3.8 4.9 92 0.5 NE 6 6 3 3 1015.8 1015.7 0.0
15/04:30am 6.1 5.0 4.9 92 0.5 CALM 0 0 0 0 1015.8 1015.7 0.0
15/04:00am 5.9 3.6 4.7 92 0.5 ENE 6 7 3 4 1015.9 1015.8 0.0
15/03:30am 6.1 3.6 4.9 92 0.5 NE 7 9 4 5 1016.1 1016.0 0.0
15/03:00am 5.7 2.7 4.3 91 0.6 NNE 9 11 5 6 1016.3 1016.2 0.0
15/02:30am 5.8 3.4 4.3 90 0.7 E 6 7 3 4 1016.6 1016.5 0.0
15/02:00am 6.4 3.9 4.9 90 0.7 E 7 9 4 5 1016.9 1016.8 0.0
15/01:30am 6.5 4.0 4.8 89 0.8 ESE 7 9 4 5 1017.1 1017.0 0.0
15/01:00am 6.9 3.7 4.9 87 0.9 ESE 11 13 6 7 1017.4 1017.4 0.0
15/12:30am 7.2 4.4 5.2 87 0.9 E 9 11 5 6 1017.6 1017.6 0.0
15/12:00am 7.4 4.6 5.2 86 1.0 E 9 11 5 6 1017.8 1017.8 0.0
 
Date/Time
WST
Temp
°C
App
Temp
°C
Dew
Point
°C
Rel
Hum
%
Delta-T
°C
Wind Press
QNH
hPa
Press
MSL
hPa
Rain since
9am
mm
Dir  Spd
km/h
Gust
km/h
Spd
kts
Gust
kts
14/11:30pm 8.0 5.9 5.6 85 1.1 E 6 7 3 4 1018.2 1018.1 0.0
14/11:00pm 7.9 5.8 6.0 88 0.9 E 6 7 3 4 1018.3 1018.2 0.0
14/10:30pm 7.8 5.6 6.1 89 0.8 E 7 7 4 4 1018.7 1018.6 0.0
14/10:00pm 7.9 5.6 5.7 86 1.0 E 7 9 4 5 1018.9 1018.8 0.0
14/09:30pm 9.0 8.1 6.1 82 1.4 CALM 0 0 0 0 1019.0 1018.9 0.0
14/09:00pm 9.4 8.6 6.5 82 1.4 CALM 0 0 0 0 1019.1 1019.0 0.0
14/08:30pm 9.2 6.6 5.9 80 1.5 ESE 9 11 5 6 1019.1 1019.0 0.0
14/08:00pm 10.2 9.4 6.5 78 1.8 CALM 0 0 0 0 1018.9 1018.8 0.0
14/07:30pm 10.1 8.1 6.4 78 1.8 ESE 6 9 3 5 1018.8 1018.7 0.0
14/07:00pm 10.2 7.8 6.9 80 1.6 SE 9 9 5 5 1018.5 1018.4 0.0
14/06:30pm 11.0 8.7 7.5 79 1.7 ESE 9 11 5 6 1018.3 1018.2 0.0
14/06:00pm 11.8 9.3 8.1 78 1.8 SE 11 13 6 7 1018.2 1018.1 0.0
14/05:30pm 14.7 14.5 8.9 68 3.0 CALM 0 0 0 0 1018.2 1018.1 0.0
14/05:00pm 16.3 15.2 8.3 59 4.1 ENE 4 7 2 4 1017.9 1017.9 0.0
14/04:30pm 16.5 15.5 8.7 60 4.1 N 4 7 2 4 1017.9 1017.9 0.0
14/04:00pm 16.5 14.1 8.5 59 4.1 NNE 11 15 6 8 1017.8 1017.8 0.0
14/03:30pm 16.2 14.3 8.9 62 3.8 NE 9 13 5 7 1017.9 1017.9 0.0
14/03:00pm 16.4 14.3 8.4 59 4.1 NE 9 15 5 8 1018.1 1018.0 0.0
14/02:30pm 16.7 14.6 6.8 52 5.0 NNE 7 15 4 8 1018.2 1018.1 0.0
14/02:00pm 16.1 15.1 7.3 56 4.4 SE 2 9 1 5 1018.5 1018.4 0.0
14/01:30pm 16.6 14.8 7.3 54 4.7 NE 6 11 3 6 1018.6 1018.5 0.0
14/01:00pm 16.0 14.4 8.2 60 4.0 WSW 6 9 3 5 1019.0 1018.9 0.0
14/12:30pm 15.0 13.4 8.0 63 3.6 ESE 6 9 3 5 1019.5 1019.4 0.0
14/12:00pm 15.3 13.4 9.0 66 3.3 ENE 9 13 5 7 1019.7 1019.6 0.0
14/11:30am 14.5 12.9 8.7 68 3.0 ESE 7 13 4 7 1019.9 1019.9 0.0
14/11:00am 14.0 11.7 9.0 72 2.6 ESE 11 15 6 8 1019.8 1019.7 0.0
14/10:30am 14.3 12.5 9.3 72 2.6 E 9 13 5 7 1019.9 1019.9 0.0
14/10:00am 14.0 12.2 9.6 75 2.3 ENE 9 13 5 7 1019.9 1019.9 0.0
14/09:30am 12.9 11.2 9.7 81 1.7 NE 9 11 5 6 1019.6 1019.5 0.0
14/09:00am 12.6 12.4 10.3 86 1.2 NE 2 7 1 4 1019.8 1019.7 5.4
14/08:30am 10.9 11.0 10.1 95 0.4 CALM 0 0 0 0 1019.7 1019.6 5.4
14/08:00am 8.1 7.1 7.3 95 0.4 NW 2 7 1 4 1019.4 1019.3 5.4
14/07:30am 5.8 4.7 5.1 95 0.3 CALM 0 0 0 0 1018.9 1018.8 5.2
14/07:00am 5.1 3.1 4.2 94 0.4 WNW 4 7 2 4 1018.4 1018.3 5.2
14/06:30am 5.0 3.7 4.1 94 0.4 CALM 0 0 0 0 1018.1 1018.0 5.2
14/06:00am 5.4 4.2 4.4 93 0.4 CALM 0 0 0 0 1017.5 1017.5 5.2
14/05:30am 6.7 4.6 5.8 94 0.4 WNW 6 7 3 4 1017.2 1017.2 5.2
14/05:00am 7.2 5.2 6.1 93 0.5 NW 6 9 3 5 1016.9 1016.8 5.2
14/04:30am 8.0 5.6 7.1 94 0.4 WNW 9 13 5 7 1016.7 1016.6 5.2
14/04:00am 8.0 6.0 7.2 95 0.4 WNW 7 11 4 6 1016.7 1016.6 5.2
14/03:30am 7.5 5.0 6.6 94 0.4 WNW 9 13 5 7 1016.7 1016.6 5.2
14/03:00am 7.7 4.9 6.8 94 0.4 NW 11 15 6 8 1016.3 1016.2 5.2
14/02:30am 7.3 4.7 6.1 92 0.6 NW 9 13 5 7 1016.2 1016.1 5.2
14/02:00am 8.2 5.8 7.1 93 0.5 WNW 9 11 5 6 1016.0 1015.9 5.2
14/01:30am 8.4 6.0 7.2 92 0.6 W 9 11 5 6 1016.0 1015.9 5.2
14/01:00am 8.4 5.7 7.2 92 0.6 W 11 13 6 7 1015.8 1015.7 5.2
14/12:30am 8.7 6.4 7.5 92 0.6 WNW 9 13 5 7 1015.8 1015.7 5.2
14/12:00am 8.7 6.5 7.8 94 0.4 WNW 9 13 5 7 1015.8 1015.7 5.2
 
Date/Time
WST
Temp
°C
App
Temp
°C
Dew
Point
°C
Rel
Hum
%
Delta-T
°C
Wind Press
QNH
hPa
Press
MSL
hPa
Rain since
9am
mm
Dir  Spd
km/h
Gust
km/h
Spd
kts
Gust
kts
13/11:30pm 8.9 6.6 7.5 91 0.7 NW 9 15 5 8 1015.8 1015.7 5.2
13/11:00pm 9.6 7.1 8.2 91 0.7 WNW 11 17 6 9 1015.6 1015.5 5.2
13/10:30pm 9.7 7.3 8.5 92 0.6 WNW 11 17 6 9 1015.2 1015.1 5.2
13/10:00pm 9.3 7.1 7.9 91 0.7 NW 9 13 5 7 1015.0 1014.9 5.2
13/09:30pm 9.6 7.1 8.2 91 0.7 WNW 11 15 6 8 1014.9 1014.8 5.2
13/09:00pm 9.9 7.1 8.7 92 0.6 WNW 13 17 7 9 1014.5 1014.4 5.2
13/08:30pm 10.3 7.5 8.4 88 0.9 NW 13 19 7 10 1014.1 1014.0 5.2
13/08:00pm 11.2 8.2 9.1 87 1.1 WNW 15 24 8 13 1013.7 1013.6 5.2
13/07:30pm 11.8 8.9 9.7 87 1.1 WNW 15 20 8 11 1013.1 1013.0 5.2
13/07:00pm 12.5 9.3 10.0 85 1.3 NW 17 24 9 13 1012.7 1012.6 5.2
13/06:30pm 13.4 10.1 10.8 84 1.4 WNW 19 30 10 16 1012.4 1012.3 5.2
13/06:00pm 13.8 10.1 11.5 86 1.2 WNW 22 32 12 17 1012.1 1012.0 5.2
13/05:30pm 14.2 11.2 12.6 90 0.9 W 20 30 11 16 1011.5 1011.4 5.2
13/05:00pm 14.6 11.6 12.5 87 1.2 WNW 20 30 11 16 1010.7 1010.6 5.0
13/04:30pm 14.5 10.9 12.9 90 0.9 WNW 24 35 13 19 1010.5 1010.4 5.0
13/04:20pm 14.6 10.2 13.0 90 0.9 WNW 28 46 15 25 1010.2 1010.1 4.8
13/04:00pm 14.7 11.9 13.1 90 0.9 NW 20 32 11 17 1010.1 1010.0 4.4
13/03:30pm 14.4 11.5 12.8 90 0.9 NW 20 33 11 18 1009.5 1009.4 4.4
13/03:00pm 13.6 10.5 12.2 91 0.8 NNW 20 37 11 20 1009.6 1009.5 4.2
13/02:30pm 13.7 10.6 11.6 87 1.1 NNW 19 32 10 17 1009.8 1009.7 4.0
13/02:00pm 13.4 10.8 9.5 77 2.0 NNW 13 19 7 10 1009.3 1009.1 3.4
13/01:30pm 13.3 9.6 9.5 78 2.0 N 19 24 10 13 1009.5 1009.4 3.2
13/01:00pm 11.8 7.5 9.4 85 1.2 N 22 28 12 15 1009.7 1009.6 2.8
13/12:30pm 12.2 8.2 9.0 81 1.6 N 20 24 11 13 1010.4 1010.3 2.2
13/12:00pm 13.2 10.2 7.9 70 2.7 N 13 17 7 9 1011.3 1011.2 0.2
13/11:30am 14.9 10.2 5.1 52 4.7 N 19 24 10 13 1011.7 1011.5 0.0
13/11:00am 15.6 11.2 4.6 48 5.2 N 17 20 9 11 1012.1 1012.0 0.0
13/10:30am 15.4 10.5 4.2 47 5.3 N 19 28 10 15 1012.5 1012.4 0.0
13/10:00am 14.4 8.6 4.4 51 4.7 N 24 35 13 19 1012.2 1012.1 0.0
13/09:30am 13.7 7.1 4.0 52 4.5 N 28 43 15 23 1012.1 1012.0 0.0

Other formats

Comma delimited format used in spreadsheet applications
http://www.bom.gov.au/fwo/IDW60801/IDW60801.95629.axf

JavaScript Object Notation format (JSON) in row-major order
http://www.bom.gov.au/fwo/IDW60801/IDW60801.95629.json

Data quality

Most of these data are generated automatically and are frequently updated. Quality checks on data are not normally performed. It is possible for incorrect values to appear. Refer to information at About Latest Weather Observations and please check the disclaimer before using these data.